createdAt,value
2023-03-05T00:02:07.074Z,4.05
2023-03-05T00:04:33.982Z,4.02
2023-03-05T00:07:00.742Z,3.99
2023-03-05T00:09:27.588Z,3.95
2023-03-05T00:11:54.325Z,3.95
2023-03-05T00:14:21.112Z,3.95
2023-03-05T00:16:48.156Z,3.95
2023-03-05T00:19:14.944Z,3.96
2023-03-05T00:21:42.804Z,3.94
2023-03-05T00:24:18.426Z,3.92
2023-03-05T00:26:46.205Z,3.88
2023-03-05T00:29:16.287Z,3.85
2023-03-05T00:31:44.424Z,3.89
2023-03-05T00:34:16.076Z,3.92
2023-03-05T00:36:45.668Z,3.91
2023-03-05T00:39:14.029Z,3.89
2023-03-05T00:41:40.976Z,3.88
2023-03-05T00:44:07.809Z,3.87
2023-03-05T00:46:34.684Z,3.86
2023-03-05T00:49:01.517Z,3.83
2023-03-05T00:51:28.706Z,3.73
2023-03-05T00:53:55.932Z,3.79
2023-03-05T00:56:23.362Z,3.78
2023-03-05T00:58:50.142Z,3.78
2023-03-05T01:01:16.924Z,3.77
2023-03-05T01:03:43.737Z,3.75
2023-03-05T01:06:13.209Z,3.75
2023-03-05T01:08:40.071Z,3.71
2023-03-05T01:11:08.001Z,3.68
2023-03-05T01:13:35.315Z,3.69
2023-03-05T01:16:02.534Z,3.66
2023-03-05T01:18:29.628Z,3.64
2023-03-05T01:20:56.527Z,3.65
2023-03-05T01:23:23.482Z,3.66
2023-03-05T01:25:55.026Z,3.64
2023-03-05T01:28:21.964Z,3.62
2023-03-05T01:30:48.904Z,3.61
2023-03-05T01:33:16.184Z,3.58
2023-03-05T01:35:42.966Z,3.56
2023-03-05T01:38:09.737Z,3.54
2023-03-05T01:40:36.450Z,3.55
2023-03-05T01:43:12.309Z,3.54
2023-03-05T01:45:40.399Z,3.52
2023-03-05T01:48:07.137Z,3.47
2023-03-05T01:50:34.236Z,3.47
2023-03-05T01:53:06.661Z,3.42
2023-03-05T01:55:37.411Z,3.46
2023-03-05T01:58:08.925Z,3.40
2023-03-05T02:00:39.871Z,3.42
2023-03-05T02:03:10.811Z,3.41
2023-03-05T02:05:38.982Z,3.41
2023-03-05T02:08:08.995Z,3.39
2023-03-05T02:10:48.139Z,3.41
2023-03-05T02:13:19.984Z,3.41
2023-03-05T02:15:47.811Z,3.38
2023-03-05T02:18:14.687Z,3.39
2023-03-05T02:20:57.834Z,3.38
2023-03-05T02:23:33.808Z,3.38
2023-03-05T02:26:00.931Z,3.38
2023-03-05T02:28:37.618Z,3.38
2023-03-05T02:31:14.661Z,3.39
2023-03-05T02:33:41.760Z,3.36
2023-03-05T02:36:09.063Z,3.30
2023-03-05T02:38:35.842Z,3.32
2023-03-05T02:41:02.668Z,3.32
2023-03-05T02:43:29.438Z,3.31
2023-03-05T02:45:56.284Z,3.29
2023-03-05T02:48:23.183Z,3.28
2023-03-05T02:50:50.377Z,3.26
2023-03-05T02:53:17.270Z,3.27
2023-03-05T02:55:47.600Z,3.27
2023-03-05T02:58:14.440Z,3.26
2023-03-05T03:00:41.487Z,3.25
2023-03-05T03:03:08.573Z,3.27
2023-03-05T03:05:36.915Z,3.25
2023-03-05T03:08:04.097Z,3.25
2023-03-05T03:10:31.008Z,3.23
2023-03-05T03:12:57.898Z,3.22
2023-03-05T03:15:24.885Z,3.20
2023-03-05T03:17:51.632Z,3.18
2023-03-05T03:20:19.566Z,3.19
2023-03-05T03:22:47.164Z,3.18
2023-03-05T03:25:16.061Z,3.17
2023-03-05T03:27:42.863Z,3.17
2023-03-05T03:30:10.356Z,3.12
2023-03-05T03:32:37.167Z,3.12
2023-03-05T03:35:04.236Z,3.12
2023-03-05T03:37:31.224Z,3.08
2023-03-05T03:39:58.123Z,3.09
2023-03-05T03:42:25.373Z,3.07
2023-03-05T03:44:52.395Z,3.05
2023-03-05T03:47:19.332Z,3.05
2023-03-05T03:49:46.170Z,3.01
2023-03-05T03:52:13.017Z,3.03
2023-03-05T03:54:39.792Z,3.02
2023-03-05T03:57:06.656Z,3.00
2023-03-05T03:59:33.413Z,2.99
2023-03-05T04:02:00.126Z,2.98
2023-03-05T04:04:29.237Z,2.97
2023-03-05T04:06:56.723Z,2.99
2023-03-05T04:09:23.453Z,2.99
2023-03-05T04:11:50.178Z,2.98
2023-03-05T04:14:16.950Z,2.95
2023-03-05T04:16:43.672Z,2.93
2023-03-05T04:19:10.446Z,2.91
2023-03-05T04:21:37.229Z,2.90
2023-03-05T04:24:04.197Z,2.90
2023-03-05T04:26:30.960Z,2.89
2023-03-05T04:28:57.721Z,2.89
2023-03-05T04:31:24.570Z,2.88
2023-03-05T04:33:51.470Z,2.92
2023-03-05T04:36:18.314Z,2.92
2023-03-05T04:38:45.159Z,2.92
2023-03-05T04:41:11.906Z,2.93
2023-03-05T04:43:38.681Z,2.91
2023-03-05T04:46:05.480Z,2.91
2023-03-05T04:48:32.650Z,2.93
2023-03-05T04:50:59.528Z,2.92
2023-03-05T04:53:26.341Z,2.93
2023-03-05T04:55:54.601Z,2.92
2023-03-05T04:58:21.798Z,2.91
2023-03-05T05:00:48.580Z,2.89
2023-03-05T05:03:15.378Z,2.91
2023-03-05T05:05:42.201Z,2.90
2023-03-05T05:08:10.345Z,2.89
2023-03-05T05:10:40.209Z,2.88
2023-03-05T05:13:07.489Z,2.88
2023-03-05T05:15:34.313Z,2.86
2023-03-05T05:18:01.045Z,2.85
2023-03-05T05:20:27.830Z,2.83
2023-03-05T05:22:54.544Z,2.83
2023-03-05T05:25:21.376Z,2.83
2023-03-05T05:27:48.187Z,2.85
2023-03-05T05:30:15.087Z,2.84
2023-03-05T05:32:41.855Z,2.84
2023-03-05T05:35:10.204Z,2.82
2023-03-05T05:37:36.962Z,2.82
2023-03-05T05:40:05.824Z,2.81
2023-03-05T05:42:32.663Z,2.79
2023-03-05T05:44:59.799Z,2.79
2023-03-05T05:47:26.592Z,2.79
2023-03-05T05:49:53.422Z,2.79
2023-03-05T05:52:20.233Z,2.79
2023-03-05T05:54:47.029Z,2.79
2023-03-05T05:57:14.073Z,2.79
2023-03-05T05:59:41.652Z,2.78
2023-03-05T06:02:08.934Z,2.78
2023-03-05T06:04:36.402Z,2.77
2023-03-05T06:07:04.001Z,2.75
2023-03-05T06:09:30.735Z,2.74
2023-03-05T06:11:57.654Z,2.75
2023-03-05T06:14:24.564Z,2.75
2023-03-05T06:16:51.350Z,2.74
2023-03-05T06:19:18.226Z,2.73
2023-03-05T06:21:44.949Z,2.72
2023-03-05T06:24:12.501Z,2.71
2023-03-05T06:26:39.381Z,2.71
2023-03-05T06:29:06.142Z,2.73
2023-03-05T06:31:33.435Z,2.77
2023-03-05T06:34:01.692Z,2.82
2023-03-05T06:36:29.082Z,2.80
2023-03-05T06:38:57.019Z,2.79
2023-03-05T06:41:27.109Z,2.79
2023-03-05T06:43:54.582Z,2.79
2023-03-05T06:46:29.433Z,2.69
2023-03-05T06:48:58.959Z,2.76
2023-03-05T06:51:31.252Z,2.78
2023-03-05T06:54:01.777Z,2.76
2023-03-05T06:56:28.653Z,2.76
2023-03-05T06:58:55.577Z,2.78
2023-03-05T07:01:23.752Z,2.74
2023-03-05T07:03:52.291Z,2.79
2023-03-05T07:06:20.389Z,2.81
2023-03-05T07:08:47.662Z,2.79
2023-03-05T07:11:20.483Z,2.78
2023-03-05T07:13:48.248Z,2.78
2023-03-05T07:16:21.972Z,2.76
2023-03-05T07:18:48.945Z,2.73
2023-03-05T07:21:19.708Z,2.76
2023-03-05T07:23:46.754Z,2.80
2023-03-05T07:26:14.286Z,2.80
2023-03-05T07:28:41.334Z,2.81
2023-03-05T07:31:13.185Z,2.82
2023-03-05T07:33:40.186Z,2.83
2023-03-05T07:36:11.191Z,2.83
2023-03-05T07:38:38.059Z,2.85
2023-03-05T07:41:11.278Z,2.87
2023-03-05T07:43:38.403Z,2.87
2023-03-05T07:46:11.679Z,2.88
2023-03-05T07:48:38.729Z,2.91
2023-03-05T07:51:08.214Z,2.92
2023-03-05T07:53:35.074Z,2.92
2023-03-05T07:56:02.468Z,2.94
2023-03-05T07:58:29.439Z,2.96
2023-03-05T08:00:56.169Z,2.98
2023-03-05T08:03:22.956Z,3.00
2023-03-05T08:05:49.684Z,3.04
2023-03-05T08:08:16.654Z,3.08
2023-03-05T08:10:43.401Z,3.09
2023-03-05T08:13:10.493Z,3.11
2023-03-05T08:15:38.318Z,3.20
2023-03-05T08:18:05.358Z,3.25
2023-03-05T08:20:35.630Z,3.29
2023-03-05T08:23:03.403Z,3.33
2023-03-05T08:25:30.247Z,3.37
2023-03-05T08:27:57.129Z,3.42
2023-03-05T08:30:27.388Z,3.45
2023-03-05T08:32:55.520Z,3.52
2023-03-05T08:35:22.830Z,3.54
2023-03-05T08:37:49.686Z,3.59
2023-03-05T08:40:18.246Z,3.59
2023-03-05T08:42:45.577Z,3.62
2023-03-05T08:45:12.585Z,3.66
2023-03-05T08:47:39.686Z,3.68
2023-03-05T08:50:07.158Z,3.74
2023-03-05T08:52:34.659Z,3.81
2023-03-05T08:55:01.468Z,3.90
2023-03-05T08:57:28.203Z,4.02
2023-03-05T08:59:54.898Z,4.26
2023-03-05T09:02:21.777Z,4.45
2023-03-05T09:04:48.634Z,4.64
2023-03-05T09:07:15.435Z,4.79
2023-03-05T09:09:42.239Z,4.87
2023-03-05T09:12:12.083Z,4.96
2023-03-05T09:14:40.515Z,5.08
2023-03-05T09:17:07.476Z,5.19
2023-03-05T09:19:34.463Z,5.30
2023-03-05T09:22:01.261Z,5.38
2023-03-05T09:24:28.038Z,5.50
2023-03-05T09:26:58.812Z,5.57
2023-03-05T09:29:26.869Z,5.70
2023-03-05T09:31:54.000Z,5.85
2023-03-05T09:34:21.569Z,5.98
2023-03-05T09:36:48.489Z,6.05
2023-03-05T09:39:15.987Z,6.09
2023-03-05T09:42:04.083Z,6.08
2023-03-05T09:45:00.767Z,6.09
2023-03-05T09:47:44.733Z,6.30
2023-03-05T09:50:33.353Z,6.58
2023-03-05T09:53:12.191Z,6.91
2023-03-05T09:55:52.543Z,7.10
2023-03-05T09:58:37.419Z,7.28
2023-03-05T10:01:06.305Z,7.28
2023-03-05T10:03:47.924Z,7.22
2023-03-05T10:06:28.886Z,7.25
2023-03-05T10:09:09.808Z,7.41
2023-03-05T10:11:48.433Z,7.40
2023-03-05T10:14:48.546Z,7.57
2023-03-05T10:17:36.201Z,7.33
2023-03-05T10:20:15.103Z,7.43
2023-03-05T10:23:37.699Z,7.25
2023-03-05T10:26:20.736Z,7.25
2023-03-05T10:28:55.644Z,7.44
2023-03-05T10:31:43.982Z,7.47
2023-03-05T10:34:28.157Z,7.81
2023-03-05T10:37:23.215Z,8.08
2023-03-05T10:39:55.807Z,8.27
2023-03-05T10:42:37.867Z,8.29
2023-03-05T10:45:39.238Z,8.38
2023-03-05T10:48:14.906Z,8.29
2023-03-05T10:50:48.329Z,8.35
2023-03-05T10:53:28.946Z,8.32
2023-03-05T10:55:58.420Z,8.37
2023-03-05T10:58:25.527Z,8.23
2023-03-05T11:01:04.917Z,8.28
2023-03-05T11:03:54.898Z,8.28
2023-03-05T11:06:43.066Z,8.15
2023-03-05T11:09:28.003Z,8.34
2023-03-05T11:12:19.704Z,8.46
2023-03-05T11:14:47.982Z,8.06
2023-03-05T11:17:37.973Z,8.09
2023-03-05T11:20:23.659Z,8.24
2023-03-05T11:23:24.022Z,8.14
2023-03-05T11:25:53.364Z,8.35
2023-03-05T11:28:32.986Z,8.32
2023-03-05T11:31:23.664Z,8.26
2023-03-05T11:34:25.246Z,8.64
2023-03-05T11:36:54.467Z,9.03
2023-03-05T11:39:25.963Z,9.30
2023-03-05T11:42:15.468Z,9.51
2023-03-05T11:44:49.366Z,9.66
2023-03-05T11:47:46.528Z,9.85
2023-03-05T11:50:16.828Z,9.88
2023-03-05T11:53:07.809Z,9.81
2023-03-05T11:55:54.520Z,9.89
2023-03-05T11:58:32.884Z,9.90
2023-03-05T12:01:01.795Z,10.09
2023-03-05T12:03:35.048Z,9.96
2023-03-05T12:06:34.398Z,10.18
2023-03-05T12:09:07.902Z,10.41
2023-03-05T12:11:36.718Z,10.54
2023-03-05T12:14:06.202Z,10.50
2023-03-05T12:16:48.508Z,10.67
2023-03-05T12:19:34.672Z,10.64
2023-03-05T12:22:19.010Z,10.73
2023-03-05T12:24:46.120Z,10.77
2023-03-05T12:27:16.138Z,11.01
2023-03-05T12:29:45.966Z,10.90
2023-03-05T12:32:34.125Z,10.64
2023-03-05T12:35:04.516Z,11.05
2023-03-05T12:37:31.329Z,11.38
2023-03-05T12:40:08.803Z,11.71
2023-03-05T12:42:43.869Z,11.78
2023-03-05T12:45:14.587Z,11.53
2023-03-05T12:47:48.447Z,10.63
2023-03-05T12:50:30.269Z,10.59
2023-03-05T12:53:11.810Z,10.59
2023-03-05T12:55:47.457Z,10.71
2023-03-05T12:58:17.113Z,10.98
2023-03-05T13:00:52.364Z,11.16
2023-03-05T13:03:27.153Z,10.87
2023-03-05T13:05:56.660Z,11.13
2023-03-05T13:08:37.748Z,11.34
2023-03-05T13:11:16.530Z,11.61
2023-03-05T13:13:45.203Z,11.67
2023-03-05T13:16:25.073Z,11.61
2023-03-05T13:18:53.350Z,11.53
2023-03-05T13:21:26.727Z,11.18
2023-03-05T13:23:59.176Z,11.11
2023-03-05T13:26:45.977Z,10.80
2023-03-05T13:29:21.152Z,10.75
2023-03-05T13:31:52.204Z,10.85
2023-03-05T13:34:22.205Z,10.91
2023-03-05T13:37:15.009Z,10.69
2023-03-05T13:39:48.504Z,10.90
2023-03-05T13:42:38.914Z,11.01
2023-03-05T13:45:21.970Z,11.23
2023-03-05T13:47:56.107Z,11.03
2023-03-05T13:50:28.793Z,11.05
2023-03-05T13:52:58.371Z,11.03
2023-03-05T13:55:26.101Z,11.03
2023-03-05T13:57:55.698Z,11.10
2023-03-05T14:00:28.576Z,11.20
2023-03-05T14:02:59.570Z,11.55
2023-03-05T14:05:27.607Z,11.92
2023-03-05T14:07:56.861Z,12.09
2023-03-05T14:10:26.462Z,11.59
2023-03-05T14:12:53.598Z,11.65
2023-03-05T14:15:22.742Z,11.86
2023-03-05T14:17:49.663Z,11.85
2023-03-05T14:20:28.099Z,12.11
2023-03-05T14:23:00.372Z,12.20
2023-03-05T14:25:38.947Z,12.22
2023-03-05T14:28:14.464Z,12.24
2023-03-05T14:30:49.119Z,11.68
2023-03-05T14:33:26.135Z,11.70
2023-03-05T14:35:53.990Z,11.75
2023-03-05T14:38:25.357Z,11.73
2023-03-05T14:40:52.070Z,11.44
2023-03-05T14:43:18.846Z,11.34
2023-03-05T14:45:46.778Z,11.20
2023-03-05T14:48:16.625Z,10.99
2023-03-05T14:50:53.700Z,10.88
2023-03-05T14:53:25.819Z,10.86
2023-03-05T14:55:57.158Z,10.97
2023-03-05T14:58:29.459Z,10.99
2023-03-05T15:00:57.160Z,10.91
2023-03-05T15:03:24.066Z,11.14
2023-03-05T15:05:53.878Z,11.26
2023-03-05T15:08:24.371Z,11.17
2023-03-05T15:10:52.413Z,11.19
2023-03-05T15:13:19.877Z,11.29
2023-03-05T15:15:50.521Z,11.33
2023-03-05T15:18:20.476Z,11.35
2023-03-05T15:20:49.016Z,11.25
2023-03-05T15:23:16.378Z,11.17
2023-03-05T15:25:43.495Z,10.98
2023-03-05T15:28:10.325Z,10.84
2023-03-05T15:30:40.066Z,10.61
2023-03-05T15:33:10.559Z,10.60
2023-03-05T15:35:37.664Z,10.50
2023-03-05T15:38:05.476Z,10.47
2023-03-05T15:40:33.040Z,10.29
2023-03-05T15:43:00.610Z,10.19
2023-03-05T15:45:31.440Z,10.13
2023-03-05T15:47:58.780Z,10.11
2023-03-05T15:50:25.854Z,10.11
2023-03-05T15:52:54.027Z,10.15
2023-03-05T15:55:21.106Z,10.25
2023-03-05T15:57:50.307Z,10.34
2023-03-05T16:00:24.876Z,10.35
2023-03-05T16:02:52.488Z,10.33
2023-03-05T16:05:19.362Z,10.34
2023-03-05T16:07:50.297Z,10.23
2023-03-05T16:10:22.466Z,10.16
2023-03-05T16:12:52.520Z,10.14
2023-03-05T16:15:21.655Z,9.93
2023-03-05T16:17:53.207Z,9.79
2023-03-05T16:20:21.096Z,9.86
2023-03-05T16:22:48.179Z,9.94
2023-03-05T16:25:15.231Z,9.92
2023-03-05T16:27:42.017Z,9.95
2023-03-05T16:30:10.598Z,9.94
2023-03-05T16:32:38.644Z,9.93
2023-03-05T16:35:06.125Z,9.90
2023-03-05T16:37:32.892Z,9.84
2023-03-05T16:39:59.864Z,9.83
2023-03-05T16:42:26.733Z,9.74
2023-03-05T16:44:53.592Z,9.70
2023-03-05T16:47:20.489Z,9.62
2023-03-05T16:49:47.328Z,9.56
2023-03-05T16:52:19.187Z,9.40
2023-03-05T16:54:47.153Z,9.31
2023-03-05T16:57:14.683Z,9.23
2023-03-05T16:59:41.655Z,9.19
2023-03-05T17:02:08.454Z,9.17
2023-03-05T17:04:35.390Z,9.11
2023-03-05T17:07:04.237Z,9.06
2023-03-05T17:09:31.303Z,9.03
2023-03-05T17:11:58.158Z,8.96
2023-03-05T17:14:24.912Z,8.84
2023-03-05T17:16:51.730Z,8.78
2023-03-05T17:19:18.841Z,8.70
2023-03-05T17:21:45.724Z,8.63
2023-03-05T17:24:12.513Z,8.54
2023-03-05T17:26:39.456Z,8.50
2023-03-05T17:29:06.623Z,8.43
2023-03-05T17:31:33.636Z,8.49
2023-03-05T17:34:00.694Z,8.40
2023-03-05T17:36:27.638Z,8.34
2023-03-05T17:38:54.754Z,8.30
2023-03-05T17:41:22.373Z,8.29
2023-03-05T17:43:49.728Z,8.27
2023-03-05T17:46:16.931Z,8.27
2023-03-05T17:48:44.425Z,8.29
2023-03-05T17:51:13.136Z,8.27
2023-03-05T17:53:40.915Z,8.27
2023-03-05T17:56:09.941Z,8.27
2023-03-05T17:58:36.951Z,8.23
2023-03-05T18:01:06.054Z,8.14
2023-03-05T18:03:32.877Z,8.13
2023-03-05T18:05:59.655Z,8.10
2023-03-05T18:08:26.465Z,8.05
2023-03-05T18:10:54.233Z,8.01
2023-03-05T18:13:21.100Z,7.95
2023-03-05T18:15:47.960Z,7.90
2023-03-05T18:18:16.387Z,7.81
2023-03-05T18:20:43.771Z,7.76
2023-03-05T18:23:10.921Z,7.68
2023-03-05T18:25:37.718Z,7.62
2023-03-05T18:28:08.431Z,7.58
2023-03-05T18:30:36.246Z,7.57
2023-03-05T18:33:03.210Z,7.49
2023-03-05T18:35:30.316Z,7.42
2023-03-05T18:37:57.764Z,7.37
2023-03-05T18:40:27.497Z,7.35
2023-03-05T18:42:54.863Z,7.30
2023-03-05T18:45:22.965Z,7.27
2023-03-05T18:47:54.101Z,7.27
2023-03-05T18:50:24.370Z,7.29
2023-03-05T18:52:51.567Z,7.26
2023-03-05T18:55:21.460Z,7.21
2023-03-05T18:57:49.303Z,7.14
2023-03-05T19:00:26.245Z,7.04
2023-03-05T19:02:53.803Z,6.92
2023-03-05T19:05:21.016Z,6.81
2023-03-05T19:07:48.411Z,6.70
2023-03-05T19:10:16.392Z,6.60
2023-03-05T19:12:49.922Z,6.51
2023-03-05T19:15:17.456Z,6.46
2023-03-05T19:17:44.282Z,6.39
2023-03-05T19:20:14.400Z,6.33
2023-03-05T19:22:41.169Z,6.33
2023-03-05T19:25:09.240Z,6.37
2023-03-05T19:27:36.402Z,6.37
2023-03-05T19:30:04.769Z,6.43
2023-03-05T19:32:31.661Z,6.38
2023-03-05T19:34:58.830Z,6.43
2023-03-05T19:37:26.203Z,6.46
2023-03-05T19:39:53.091Z,6.48
2023-03-05T19:42:20.229Z,6.48
2023-03-05T19:44:47.035Z,6.46
2023-03-05T19:47:13.781Z,6.45
2023-03-05T19:49:40.576Z,6.43
2023-03-05T19:52:07.685Z,6.41
2023-03-05T19:54:34.573Z,6.36
2023-03-05T19:57:01.366Z,6.26
2023-03-05T19:59:28.137Z,6.17
2023-03-05T20:01:57.512Z,6.10
2023-03-05T20:04:25.245Z,6.02
2023-03-05T20:06:52.784Z,5.92
2023-03-05T20:09:19.869Z,5.81
2023-03-05T20:11:47.235Z,5.72
2023-03-05T20:14:14.805Z,5.65
2023-03-05T20:16:43.347Z,5.60
2023-03-05T20:19:16.482Z,5.49
2023-03-05T20:21:44.312Z,5.40
2023-03-05T20:24:16.797Z,5.30
2023-03-05T20:26:44.891Z,5.24
2023-03-05T20:29:14.882Z,5.17
2023-03-05T20:31:43.832Z,5.07
2023-03-05T20:34:13.126Z,5.09
2023-03-05T20:36:40.635Z,5.02
2023-03-05T20:39:07.791Z,4.98
2023-03-05T20:41:36.529Z,4.96
2023-03-05T20:44:04.035Z,4.92
2023-03-05T20:46:36.478Z,5.02
2023-03-05T20:49:04.689Z,5.05
2023-03-05T20:51:35.119Z,5.01
2023-03-05T20:54:06.980Z,5.09
2023-03-05T20:56:35.186Z,5.14
2023-03-05T20:59:04.729Z,5.22
2023-03-05T21:01:33.433Z,5.33
2023-03-05T21:04:02.806Z,5.37
2023-03-05T21:06:31.543Z,5.46
2023-03-05T21:08:59.214Z,5.48
2023-03-05T21:11:26.390Z,5.53
2023-03-05T21:13:53.158Z,5.54
2023-03-05T21:16:25.919Z,5.55
2023-03-05T21:18:53.485Z,5.51
2023-03-05T21:21:20.529Z,5.42
2023-03-05T21:23:47.447Z,5.34
2023-03-05T21:26:14.647Z,5.23
2023-03-05T21:28:41.588Z,5.08
2023-03-05T21:31:11.508Z,5.00
2023-03-05T21:33:38.379Z,5.00
2023-03-05T21:36:05.729Z,4.96
2023-03-05T21:38:34.228Z,4.99
2023-03-05T21:41:01.857Z,4.98
2023-03-05T21:43:31.207Z,4.97
2023-03-05T21:46:00.691Z,4.97
2023-03-05T21:48:27.524Z,4.90
2023-03-05T21:50:55.394Z,4.87
2023-03-05T21:53:22.545Z,4.81
2023-03-05T21:56:05.226Z,4.75
2023-03-05T21:58:33.436Z,4.68
2023-03-05T22:01:00.941Z,4.65
2023-03-05T22:03:28.460Z,4.64
2023-03-05T22:05:56.398Z,4.64
2023-03-05T22:08:23.785Z,4.64
2023-03-05T22:10:50.972Z,4.63
2023-03-05T22:13:20.175Z,4.69
2023-03-05T22:15:49.906Z,4.72
2023-03-05T22:18:20.105Z,4.77
2023-03-05T22:20:47.736Z,4.77
2023-03-05T22:23:15.271Z,4.80
2023-03-05T22:25:42.749Z,4.76
2023-03-05T22:28:11.211Z,4.76
2023-03-05T22:30:45.735Z,4.66
2023-03-05T22:33:12.687Z,4.64
2023-03-05T22:35:40.888Z,4.61
2023-03-05T22:38:12.474Z,4.64
2023-03-05T22:40:44.611Z,4.69
2023-03-05T22:43:12.459Z,4.73
2023-03-05T22:45:39.640Z,4.78
2023-03-05T22:48:06.824Z,4.80
2023-03-05T22:50:33.613Z,4.83
2023-03-05T22:53:00.358Z,4.80
2023-03-05T22:55:27.110Z,4.73
2023-03-05T22:57:53.880Z,4.67
2023-03-05T23:00:26.884Z,4.61
2023-03-05T23:02:54.086Z,4.48
2023-03-05T23:05:21.689Z,4.36
2023-03-05T23:07:49.365Z,4.22
2023-03-05T23:10:18.053Z,4.07
2023-03-05T23:12:49.479Z,3.95
2023-03-05T23:15:17.233Z,3.85
2023-03-05T23:17:44.045Z,3.64
2023-03-05T23:20:12.279Z,3.50
2023-03-05T23:22:39.883Z,3.42
2023-03-05T23:25:07.481Z,3.34
2023-03-05T23:27:34.304Z,3.26
2023-03-05T23:30:19.816Z,3.24
2023-03-05T23:32:59.181Z,3.18
2023-03-05T23:35:31.568Z,3.10
2023-03-05T23:37:59.917Z,3.03
2023-03-05T23:40:32.163Z,2.97
2023-03-05T23:42:59.066Z,2.92
2023-03-05T23:45:26.375Z,2.90
2023-03-05T23:47:53.323Z,2.79
2023-03-05T23:50:26.119Z,2.90
2023-03-05T23:52:54.380Z,2.94
2023-03-05T23:55:24.713Z,2.96
2023-03-05T23:57:52.446Z,3.00
